Time;durP1;ratioP1;P1;durP2;ratioP2;P2;SDS_P1;SDS_P2;PMS_P1;PMS_P2;Temp;Humidity;BMP_temperature;BMP_pressure;BME280_temperature;BME280_humidity;BME280_pressure;Samples;Min_cycle;Max_cycle;Signal;HPM_P1;HPM_P2
2022/09/04 00:00:14;;;;;;;7.50;6.85;;;;;;;21.34;58.20;100360.16;5048413;28;20059;-79
2022/09/04 00:03:00;;;;;;;7.95;7.32;;;;;;;21.17;58.20;100335.69;5048298;28;20099;-79
2022/09/04 00:05:36;;;;;;;9.32;6.85;;;;;;;21.42;58.13;100348.66;5045779;28;20077;-78
2022/09/04 00:08:34;;;;;;;9.30;6.20;;;;;;;21.53;57.89;100358.31;5030066;28;20057;-77
2022/09/04 00:11:31;;;;;;;10.63;7.00;;;;;;;21.37;58.23;100362.28;5037653;28;20083;-79
2022/09/04 00:14:08;;;;;;;8.93;7.45;;;;;;;20.91;58.61;100304.81;5046309;28;20102;-79
2022/09/04 00:17:03;;;;;;;10.40;9.40;;;;;;;21.28;58.45;100336.84;5032816;28;20088;-79
2022/09/04 00:19:36;;;;;;;6.63;6.13;;;;;;;21.15;58.77;100332.34;5041420;28;20108;-78
2022/09/04 00:22:18;;;;;;;7.55;6.65;;;;;;;21.18;58.65;100340.97;5056245;28;20086;-79
2022/09/04 00:25:06;;;;;;;7.45;6.60;;;;;;;20.92;58.69;100310.16;5037644;28;20079;-78
2022/09/04 00:27:43;;;;;;;6.88;6.28;;;;;;;21.19;58.47;100330.44;5065938;28;20083;-78
2022/09/04 00:30:18;;;;;;;7.75;7.13;;;;;;;21.43;58.61;100338.94;5056912;28;20077;-78
2022/09/04 00:32:50;;;;;;;9.40;8.65;;;;;;;21.46;58.07;100337.41;5050638;28;20475;-80
2022/09/04 00:35:30;;;;;;;8.48;7.78;;;;;;;21.43;58.00;100323.91;5032617;28;20076;-79
2022/09/04 00:38:36;;;;;;;7.35;6.15;;;;;;;21.20;57.97;100278.16;5033363;28;20139;-78
2022/09/04 00:41:42;;;;;;;9.27;7.10;;;;;;;21.54;58.17;100339.28;5051514;28;20087;-78
2022/09/04 00:44:36;;;;;;;7.30;6.68;;;;;;;21.59;58.00;100336.19;5053668;28;20064;-77
2022/09/04 00:47:22;;;;;;;7.50;6.88;;;;;;;21.62;57.85;100331.81;5049749;28;20467;-77
2022/09/04 00:50:08;;;;;;;7.38;6.78;;;;;;;21.67;57.96;100331.53;5052748;28;20473;-78
2022/09/04 00:53:11;;;;;;;10.90;6.88;;;;;;;21.62;57.73;100320.44;5052850;28;20084;-78
2022/09/04 00:56:02;;;;;;;7.05;6.53;;;;;;;21.50;57.79;100322.13;5054992;28;20049;-79
2022/09/04 00:58:32;;;;;;;6.85;6.35;;;;;;;21.59;57.69;100321.16;5055861;28;20049;-78
2022/09/04 01:01:00;;;;;;;7.38;5.97;;;;;;;21.61;57.78;100319.59;5045372;28;20381;-78
2022/09/04 01:03:29;;;;;;;12.80;6.57;;;;;;;21.64;57.58;100326.56;5049042;28;20456;-79
2022/09/04 01:06:45;;;;;;;7.15;6.53;;;;;;;21.58;57.58;100322.34;5048695;28;20143;-79
2022/09/04 01:09:23;;;;;;;11.13;6.30;;;;;;;21.51;57.96;100306.72;5004794;28;20054;-77
2022/09/04 01:11:59;;;;;;;7.28;6.78;;;;;;;21.53;57.76;100312.03;5052893;28;20114;-78
2022/09/04 01:14:37;;;;;;;8.48;6.93;;;;;;;21.50;58.22;100304.25;5036234;28;20053;-78
2022/09/04 01:17:22;;;;;;;7.35;6.75;;;;;;;21.33;58.31;100276.91;5050755;28;20082;-78
2022/09/04 01:20:13;;;;;;;7.00;6.50;;;;;;;21.43;58.53;100282.13;5050088;28;20529;-78
2022/09/04 01:22:53;;;;;;;7.65;6.85;;;;;;;21.50;58.44;100293.72;5042509;28;20087;-77
2022/09/04 01:25:49;;;;;;;7.18;6.68;;;;;;;21.44;58.68;100288.66;5051809;28;20187;-77
2022/09/04 01:28:24;;;;;;;7.07;6.68;;;;;;;21.33;58.59;100261.91;5050022;28;20084;-77
2022/09/04 01:31:23;;;;;;;7.45;6.32;;;;;;;21.32;58.45;100275.28;5049815;28;20098;-78
2022/09/04 01:34:07;;;;;;;7.22;6.72;;;;;;;21.44;58.83;100295.16;5049281;28;20415;-77
2022/09/04 01:36:57;;;;;;;7.30;6.70;;;;;;;21.51;58.58;100284.00;5049257;28;20080;-78
2022/09/04 01:39:27;;;;;;;8.38;6.53;;;;;;;21.60;58.45;100291.53;5050203;28;20584;-77
2022/09/04 01:42:17;;;;;;;8.20;6.60;;;;;;;21.53;58.33;100281.59;5034041;28;20058;-77
2022/09/04 01:44:44;;;;;;;;;;;;;;;21.48;58.69;100281.88;5055152;28;20089;-79
2022/09/04 01:47:50;;;;;;;7.20;6.57;;;;;;;21.47;58.64;100288.75;5055481;28;20016;-78
2022/09/04 01:50:24;;;;;;;17.55;7.40;;;;;;;21.35;58.41;100256.72;4980574;28;20597;-80
2022/09/04 01:53:16;;;;;;;6.25;5.75;;;;;;;21.43;58.24;100275.63;5043933;28;20051;-80
2022/09/04 01:56:06;;;;;;;6.95;6.38;;;;;;;21.04;58.29;100242.00;5053914;28;20056;-78
2022/09/04 01:58:54;;;;;;;7.10;6.40;;;;;;;21.46;58.30;100286.28;5049396;28;20132;-79
2022/09/04 02:01:46;;;;;;;6.85;6.40;;;;;;;21.44;57.98;100298.00;5038651;28;20045;-78
2022/09/04 02:04:29;;;;;;;7.78;6.38;;;;;;;21.53;57.86;100300.69;5049215;28;20422;-79
2022/09/04 02:07:13;;;;;;;9.57;7.05;;;;;;;21.56;57.82;100299.97;5034599;28;20110;-80
2022/09/04 02:09:57;;;;;;;6.13;5.63;;;;;;;21.44;57.92;100280.13;5051273;28;20091;-79
2022/09/04 02:12:41;;;;;;;9.93;6.68;;;;;;;21.50;57.95;100281.50;5051565;28;20114;-79
2022/09/04 02:15:29;;;;;;;6.90;6.40;;;;;;;21.61;58.12;100294.03;5034696;28;20076;-78
2022/09/04 02:18:25;;;;;;;9.20;6.60;;;;;;;21.56;58.33;100299.97;5052000;28;20136;-77
2022/09/04 02:21:01;;;;;;;7.05;6.35;;;;;;;21.51;58.19;100298.22;5047532;28;20076;-79
2022/09/04 02:23:46;;;;;;;8.18;6.72;;;;;;;21.53;58.39;100310.03;5053096;28;20586;-77
2022/09/04 02:26:23;;;;;;;8.75;6.55;;;;;;;21.40;58.27;100280.03;5053849;28;20053;-78
2022/09/04 02:28:56;;;;;;;9.73;6.78;;;;;;;21.52;58.77;100305.53;5048383;28;20057;-77
2022/09/04 02:31:33;;;;;;;9.70;7.18;;;;;;;21.45;58.93;100301.66;5062145;28;20053;-77
2022/09/04 02:34:08;;;;;;;6.40;6.00;;;;;;;21.25;59.16;100269.38;5071263;28;20049;-78
2022/09/04 02:36:38;;;;;;;7.47;6.85;;;;;;;21.47;59.37;100296.44;5066819;28;20056;-78
2022/09/04 02:39:04;;;;;;;;;;;;;;;21.43;59.26;100284.97;5057094;28;20092;-78
2022/09/04 02:41:49;;;;;;;7.22;6.53;;;;;;;21.55;58.82;100291.81;5052105;28;20016;-78
2022/09/04 02:44:22;;;;;;;6.68;6.28;;;;;;;21.29;59.24;100267.47;5046037;28;20060;-78
2022/09/04 02:47:01;;;;;;;6.50;6.00;;;;;;;21.30;59.61;100277.66;5048587;28;20049;-78
2022/09/04 02:50:13;;;;;;;6.60;6.07;;;;;;;21.39;59.57;100288.91;5046514;28;20053;-78
2022/09/04 02:53:07;;;;;;;9.27;6.70;;;;;;;21.35;59.43;100285.13;5039780;28;20123;-78
2022/09/04 02:56:08;;;;;;;7.90;6.57;;;;;;;21.40;59.28;100285.72;5051670;28;20135;-77
2022/09/04 02:58:51;;;;;;;6.10;5.80;;;;;;;21.40;59.52;100294.25;5044481;28;20099;-78
2022/09/04 03:01:47;;;;;;;6.50;5.97;;;;;;;21.43;59.35;100299.16;5050269;28;20080;-78
2022/09/04 03:04:37;;;;;;;8.68;6.45;;;;;;;21.45;59.29;100302.50;5017305;28;20408;-77
2022/09/04 03:07:07;;;;;;;7.13;6.30;;;;;;;21.46;59.21;100295.59;5032772;28;20080;-78
2022/09/04 03:09:43;;;;;;;;;;;;;;;21.45;59.25;100290.31;5044956;28;20072;-78
2022/09/04 03:12:37;;;;;;;6.55;5.95;;;;;;;21.44;59.32;100292.31;5049223;28;20371;-78
2022/09/04 03:15:16;;;;;;;7.50;5.82;;;;;;;21.38;59.30;100293.75;5047477;28;21352;-78
2022/09/04 03:18:05;;;;;;;7.00;6.30;;;;;;;21.39;59.53;100286.06;5047751;28;20207;-77
2022/09/04 03:20:41;;;;;;;7.35;6.63;;;;;;;21.43;59.43;100293.50;5048565;28;20073;-77
2022/09/04 03:23:14;;;;;;;7.40;6.80;;;;;;;21.37;59.39;100289.28;5050246;28;20080;-78
2022/09/04 03:25:44;;;;;;;7.32;5.90;;;;;;;21.41;59.43;100278.84;5028030;28;20107;-79
2022/09/04 03:28:14;;;;;;;;;;;;;;;21.29;59.74;100282.50;5048876;28;20135;-79
2022/09/04 03:30:41;;;;;;;;;;;;;;;21.30;59.66;100284.16;5047351;28;19947;-78
2022/09/04 03:33:26;;;;;;;7.25;6.00;;;;;;;21.43;59.17;100279.28;5033318;28;20272;-78
2022/09/04 03:36:15;;;;;;;6.90;6.32;;;;;;;21.41;59.29;100273.16;5040348;28;20056;-77
2022/09/04 03:39:08;;;;;;;6.35;5.80;;;;;;;21.25;59.69;100249.50;5033276;28;20087;-79
2022/09/04 03:42:06;;;;;;;5.93;5.53;;;;;;;21.45;59.55;100268.41;5049581;28;20515;-79
2022/09/04 03:44:57;;;;;;;6.78;5.47;;;;;;;21.39;59.84;100269.84;5021761;28;20131;-79
2022/09/04 03:48:09;;;;;;;6.30;5.80;;;;;;;21.34;59.41;100249.38;5049018;28;20110;-79
2022/09/04 03:51:07;;;;;;;6.38;5.93;;;;;;;21.48;59.31;100261.19;5050200;28;20143;-79
2022/09/04 03:53:52;;;;;;;6.43;5.95;;;;;;;21.50;59.46;100267.31;5049502;28;20141;-78
2022/09/04 03:56:25;;;;;;;7.75;7.07;;;;;;;21.37;59.37;100242.97;5032441;28;20048;-79
2022/09/04 03:59:12;;;;;;;6.78;5.80;;;;;;;21.44;59.35;100263.91;5050654;28;20171;-79
2022/09/04 04:01:54;;;;;;;7.18;6.47;;;;;;;21.48;59.47;100272.53;5027868;28;20092;-80
2022/09/04 04:04:55;;;;;;;6.15;5.75;;;;;;;21.43;59.60;100265.09;5051269;28;20514;-80
2022/09/04 04:07:40;;;;;;;6.97;6.30;;;;;;;21.52;59.28;100277.13;5050729;28;20068;-79
2022/09/04 04:10:44;;;;;;;8.70;6.03;;;;;;;21.25;59.10;100221.94;5048237;28;20087;-79
2022/09/04 04:13:52;;;;;;;7.00;6.40;;;;;;;21.56;59.20;100271.53;5046250;28;20571;-79
2022/09/04 04:16:29;;;;;;;6.65;6.10;;;;;;;21.58;59.30;100266.34;5046038;28;20084;-80
2022/09/04 04:19:15;;;;;;;8.25;6.72;;;;;;;21.59;59.36;100281.38;5028505;28;20056;-80
2022/09/04 04:22:20;;;;;;;7.25;6.53;;;;;;;21.54;59.25;100271.09;5032975;28;20128;-79
2022/09/04 04:25:07;;;;;;;6.60;5.72;;;;;;;21.52;59.10;100268.59;5048139;28;20534;-79
2022/09/04 04:27:53;;;;;;;7.35;6.57;;;;;;;21.53;59.18;100270.25;5047975;28;20103;-80
2022/09/04 04:30:20;;;;;;;6.55;6.15;;;;;;;21.42;59.27;100265.47;5048134;28;20132;-78
2022/09/04 04:33:20;;;;;;;7.20;6.60;;;;;;;21.50;59.30;100268.16;5049548;28;20132;-79
2022/09/04 04:35:59;;;;;;;7.40;6.70;;;;;;;21.43;59.35;100259.41;5041516;28;20560;-78
2022/09/04 04:38:53;;;;;;;7.32;5.88;;;;;;;21.19;59.92;100242.41;5047042;28;20048;-79
2022/09/04 04:42:03;;;;;;;6.05;5.55;;;;;;;21.26;59.89;100271.03;5030530;28;20060;-79
2022/09/04 04:48:17;;;;;;;8.40;7.18;;;;;;;21.26;59.83;100271.03;5042272;28;20124;-81
2022/09/04 04:50:59;;;;;;;8.88;6.35;;;;;;;21.26;59.94;100276.72;5033073;28;20136;-80
2022/09/04 04:53:41;;;;;;;5.85;5.45;;;;;;;21.24;59.94;100273.41;5046335;28;20819;-79
2022/09/04 04:56:18;;;;;;;5.28;4.97;;;;;;;21.17;60.03;100276.88;5048342;28;20136;-79
2022/09/04 04:59:03;;;;;;;9.75;6.72;;;;;;;21.22;59.87;100282.28;5033445;28;20132;-80
2022/09/04 05:01:49;;;;;;;6.78;6.28;;;;;;;21.04;60.11;100247.66;5042707;28;20152;-80
2022/09/04 05:04:40;;;;;;;6.18;5.57;;;;;;;21.18;60.01;100263.50;5046348;28;20045;-80
2022/09/04 05:07:10;;;;;;;6.35;5.85;;;;;;;21.24;60.02;100290.47;5040711;28;20143;-79
2022/09/04 05:10:06;;;;;;;6.18;5.57;;;;;;;21.21;59.98;100262.78;5048911;28;20555;-81
2022/09/04 05:13:00;;;;;;;7.15;5.72;;;;;;;21.27;59.77;100279.22;5046919;28;20041;-81
2022/09/04 05:15:31;;;;;;;8.20;7.80;;;;;;;21.15;59.77;100264.22;5048000;28;20124;-80
2022/09/04 05:18:07;;;;;;;6.63;6.05;;;;;;;20.98;59.53;100232.06;5045308;28;20052;-81
2022/09/04 05:20:38;;;;;;;9.63;6.32;;;;;;;21.15;59.94;100270.72;5049717;28;20139;-79
2022/09/04 05:23:26;;;;;;;9.55;6.32;;;;;;;21.13;60.21;100275.09;5048504;28;20131;-79
2022/09/04 05:25:57;;;;;;;6.43;5.93;;;;;;;21.26;59.78;100282.38;5047967;28;20049;-80
2022/09/04 05:28:52;;;;;;;6.55;6.07;;;;;;;21.01;60.25;100273.94;5048342;28;20196;-80
2022/09/04 05:31:47;;;;;;;7.13;6.35;;;;;;;20.89;60.33;100273.97;5051045;28;20128;-81
2022/09/04 05:34:32;;;;;;;6.28;5.78;;;;;;;20.99;60.11;100289.66;5048357;28;20044;-79
2022/09/04 05:37:05;;;;;;;5.72;5.18;;;;;;;20.88;60.44;100272.31;5051837;28;20127;-80
2022/09/04 05:40:11;;;;;;;7.05;6.38;;;;;;;20.66;60.68;100267.13;5052948;28;20699;-79
2022/09/04 05:43:00;;;;;;;6.78;6.15;;;;;;;20.83;60.60;100281.06;5048767;28;20570;-80
2022/09/04 05:45:51;;;;;;;9.38;5.90;;;;;;;20.60;60.80;100260.88;5050525;28;20088;-79
2022/09/04 05:48:37;;;;;;;8.77;5.75;;;;;;;20.63;61.10;100276.34;5053693;28;20135;-79
2022/09/04 05:51:28;;;;;;;8.75;6.03;;;;;;;20.75;60.76;100277.19;5049182;28;20125;-80
2022/09/04 05:54:20;;;;;;;8.52;4.78;;;;;;;20.55;60.92;100275.31;5053131;28;20068;-79
2022/09/04 05:56:55;;;;;;;9.25;5.50;;;;;;;20.71;60.68;100298.09;5051582;28;20136;-79
2022/09/04 05:59:28;;;;;;;6.78;6.28;;;;;;;20.64;60.97;100307.19;5052552;28;20092;-79
2022/09/04 06:02:34;;;;;;;7.78;6.28;;;;;;;20.66;61.13;100304.03;5048746;28;20127;-79
2022/09/04 06:05:37;;;;;;;9.73;6.32;;;;;;;20.73;60.89;100301.41;4983393;28;20053;-79
2022/09/04 06:08:40;;;;;;;7.35;5.43;;;;;;;20.57;61.10;100304.94;4979562;28;20085;-78
2022/09/04 06:11:35;;;;;;;6.72;5.82;;;;;;;20.64;60.89;100307.19;5032664;28;20072;-79
2022/09/04 06:14:08;;;;;;;9.60;7.05;;;;;;;20.49;61.07;100294.53;5051656;28;20541;-79
2022/09/04 06:16:38;;;;;;;6.80;5.53;;;;;;;20.59;61.05;100316.78;5044136;28;20127;-78
2022/09/04 06:19:15;;;;;;;;;;;;;;;20.33;61.53;100319.91;5049988;28;20152;-78
2022/09/04 06:22:22;;;;;;;10.00;6.07;;;;;;;20.04;61.82;100312.44;5046899;28;19970;-79
2022/09/04 06:24:55;;;;;;;9.57;5.47;;;;;;;20.02;62.17;100328.94;5047057;28;20088;-79
2022/09/04 06:27:43;;;;;;;6.68;5.85;;;;;;;19.57;62.79;100304.19;5053841;28;20137;-78
2022/09/04 06:30:12;;;;;;;5.82;5.32;;;;;;;19.69;63.02;100339.44;5048162;28;20128;-80
2022/09/04 06:33:05;;;;;;;12.73;5.60;;;;;;;19.60;63.06;100343.16;5051432;28;20139;-78
2022/09/04 06:35:58;;;;;;;8.05;5.97;;;;;;;19.60;63.36;100343.16;5051085;28;20052;-79
2022/09/04 06:38:37;;;;;;;6.60;6.20;;;;;;;19.53;63.66;100340.06;5049778;28;20499;-79
2022/09/04 06:41:31;;;;;;;9.02;6.28;;;;;;;19.56;63.26;100315.88;5048490;28;20088;-76
2022/09/04 06:44:23;;;;;;;5.03;4.70;;;;;;;19.68;63.12;100332.94;5049674;28;20084;-75
2022/09/04 06:47:05;;;;;;;6.65;6.15;;;;;;;19.63;63.29;100348.16;5045644;28;20124;-77
2022/09/04 06:50:01;;;;;;;6.53;5.82;;;;;;;19.71;63.30;100354.09;5046144;28;20080;-75
2022/09/04 06:52:47;;;;;;;7.88;5.97;;;;;;;19.72;62.93;100355.75;5045102;28;20095;-76
2022/09/04 06:55:38;;;;;;;9.52;6.57;;;;;;;19.89;63.05;100355.56;5031930;28;20140;-77
2022/09/04 06:58:22;;;;;;;8.30;6.07;;;;;;;19.87;62.91;100364.44;5046102;28;20053;-79
2022/09/04 07:00:54;;;;;;;6.53;5.93;;;;;;;19.96;62.90;100367.19;5032028;28;20112;-78
2022/09/04 07:03:47;;;;;;;6.28;5.82;;;;;;;19.95;62.78;100368.38;5048662;28;20141;-77
2022/09/04 07:06:23;;;;;;;5.80;5.30;;;;;;;19.89;62.79;100367.75;5005507;28;20099;-78
2022/09/04 07:09:28;;;;;;;9.93;6.75;;;;;;;20.05;62.49;100367.09;5049463;28;20128;-77
2022/09/04 07:12:32;;;;;;;8.60;6.60;;;;;;;20.17;62.22;100367.16;4964276;28;20125;-82
2022/09/04 07:15:13;;;;;;;18.23;6.45;;;;;;;20.32;62.08;100360.78;5045037;28;20068;-74
2022/09/04 07:18:09;;;;;;;6.13;5.50;;;;;;;20.50;61.50;100341.59;5047553;28;20132;-78
2022/09/04 07:20:47;;;;;;;6.28;5.88;;;;;;;20.49;61.01;100330.56;5046175;28;20132;-75
2022/09/04 07:23:26;;;;;;;6.10;5.20;;;;;;;20.77;60.63;100359.13;5048735;28;20051;-75
2022/09/04 07:26:19;;;;;;;8.05;7.47;;;;;;;20.73;60.36;100356.16;5046723;28;20130;-78
2022/09/04 07:28:55;;;;;;;6.95;6.45;;;;;;;20.88;60.37;100356.63;5039246;28;20149;-77
2022/09/04 07:31:48;;;;;;;6.40;5.85;;;;;;;20.94;59.82;100343.84;5045184;28;20048;-74
2022/09/04 07:35:05;;;;;;;7.15;6.43;;;;;;;21.16;59.65;100354.72;5043920;28;20055;-75
2022/09/04 07:38:01;;;;;;;6.72;6.13;;;;;;;21.59;58.53;100358.09;5033293;28;20476;-75
2022/09/04 07:40:52;;;;;;;9.13;7.30;;;;;;;21.94;57.95;100344.91;5024691;28;20494;-74
2022/09/04 07:43:35;;;;;;;8.70;7.07;;;;;;;21.87;57.11;100335.34;5045763;28;20099;-75
2022/09/04 07:46:11;;;;;;;6.63;6.22;;;;;;;21.94;56.96;100359.13;5043944;28;20080;-74
2022/09/04 07:48:55;;;;;;;7.07;6.53;;;;;;;21.76;56.73;100340.75;5046716;28;20068;-74
2022/09/04 07:51:30;;;;;;;9.77;6.22;;;;;;;21.65;57.04;100339.59;5046112;28;20471;-74
2022/09/04 07:54:36;;;;;;;7.75;6.80;;;;;;;21.85;56.59;100355.63;5050813;28;20326;-76
2022/09/04 07:57:34;;;;;;;8.32;6.47;;;;;;;21.65;56.91;100365.19;5045199;28;20049;-73
2022/09/04 08:00:12;;;;;;;6.85;6.45;;;;;;;21.72;56.67;100360.53;5051062;28;20507;-71
2022/09/04 08:03:20;;;;;;;7.45;6.05;;;;;;;21.70;56.68;100362.88;5052226;28;20110;-74
2022/09/04 08:06:01;;;;;;;6.68;6.05;;;;;;;21.46;56.66;100317.50;4985047;28;20594;-74
2022/09/04 08:09:08;;;;;;;10.02;6.47;;;;;;;21.38;56.69;100313.63;5040172;28;20130;-75
2022/09/04 08:11:44;;;;;;;8.35;7.75;;;;;;;21.76;56.43;100358.63;5029012;28;20140;-74
2022/09/04 08:14:36;;;;;;;6.18;5.82;;;;;;;21.86;56.37;100362.97;5042433;28;20140;-76
2022/09/04 08:17:24;;;;;;;8.23;7.38;;;;;;;21.77;56.43;100365.13;5043413;28;20055;-74
2022/09/04 08:20:11;;;;;;;7.35;6.72;;;;;;;21.85;56.16;100367.00;5044955;28;20050;-75
2022/09/04 08:22:57;;;;;;;6.53;6.03;;;;;;;22.07;55.92;100364.75;5044799;28;20475;-73
2022/09/04 08:25:52;;;;;;;6.78;6.18;;;;;;;22.00;56.20;100369.06;5042131;28;20076;-74
2022/09/04 08:28:20;;;;;;;6.55;6.10;;;;;;;21.99;55.88;100384.47;5037483;28;20136;-74
2022/09/04 08:31:02;;;;;;;9.70;6.53;;;;;;;21.89;55.83;100359.41;5041186;28;20144;-74
2022/09/04 08:33:32;;;;;;;8.18;7.35;;;;;;;21.94;56.50;100375.34;5035230;28;20458;-74
2022/09/04 08:36:09;;;;;;;8.70;6.03;;;;;;;22.05;56.08;100365.16;5044342;28;20048;-72
2022/09/04 08:38:57;;;;;;;6.68;5.97;;;;;;;22.20;56.29;100372.06;5029646;28;20143;-74
2022/09/04 08:42:05;;;;;;;7.45;6.90;;;;;;;22.13;56.49;100378.34;5047687;28;20503;-75
2022/09/04 08:44:38;;;;;;;7.70;7.20;;;;;;;22.15;56.56;100380.84;5031208;28;20447;-75
2022/09/04 08:47:25;;;;;;;9.68;9.10;;;;;;;22.09;57.07;100402.22;5048303;28;20337;-75
2022/09/04 08:50:22;;;;;;;5.72;5.28;;;;;;;22.22;56.67;100398.13;5050124;28;20537;-75
2022/09/04 08:53:17;;;;;;;8.20;7.65;;;;;;;22.41;56.53;100377.53;5050497;28;20126;-75
2022/09/04 08:55:59;;;;;;;6.85;5.70;;;;;;;22.83;56.34;100394.91;5044384;28;20099;-75
2022/09/04 08:58:49;;;;;;;7.38;6.47;;;;;;;22.66;56.24;100390.38;5032124;28;20080;-74
2022/09/04 09:01:45;;;;;;;9.73;8.90;;;;;;;22.91;55.98;100405.28;5040538;28;20056;-75
2022/09/04 09:04:30;;;;;;;6.00;5.60;;;;;;;23.57;55.21;100405.66;5052555;28;20075;-74
2022/09/04 09:07:19;;;;;;;6.05;5.55;;;;;;;23.29;55.12;100389.56;5052018;28;20071;-74
2022/09/04 09:09:46;;;;;;;6.95;6.10;;;;;;;23.22;55.29;100412.19;5054583;28;20088;-74
2022/09/04 09:12:34;;;;;;;8.85;5.97;;;;;;;23.15;55.48;100412.84;5052422;28;20419;-74
2022/09/04 09:15:21;;;;;;;5.72;5.28;;;;;;;23.17;55.47;100395.34;5049188;28;20877;-74
2022/09/04 09:18:01;;;;;;;9.57;6.93;;;;;;;23.65;54.96;100416.84;5051381;28;20152;-75
2022/09/04 09:20:49;;;;;;;5.95;5.50;;;;;;;24.16;54.93;100386.56;5030300;28;20145;-74
2022/09/04 09:23:24;;;;;;;6.63;6.13;;;;;;;24.24;53.42;100369.25;5047333;28;20154;-75
2022/09/04 09:26:18;;;;;;;6.93;6.43;;;;;;;24.08;53.70;100402.72;5043388;28;20148;-76
2022/09/04 09:29:00;;;;;;;6.22;5.85;;;;;;;23.88;54.08;100422.69;5030336;28;20111;-74
2022/09/04 09:31:34;;;;;;;7.22;6.82;;;;;;;23.83;53.87;100419.31;5045754;28;20459;-75
2022/09/04 09:34:25;;;;;;;7.13;6.43;;;;;;;23.70;54.32;100415.78;5049926;28;20140;-74
2022/09/04 09:37:11;;;;;;;7.07;6.47;;;;;;;23.58;54.41;100427.25;5047766;28;20554;-74
2022/09/04 09:39:38;;;;;;;6.07;5.55;;;;;;;23.26;54.99;100430.19;5033650;28;20566;-74
2022/09/04 09:42:12;;;;;;;7.70;7.00;;;;;;;23.22;55.02;100440.66;5050220;28;20045;-75
2022/09/04 09:44:41;;;;;;;7.00;6.40;;;;;;;23.23;54.90;100448.00;5051912;28;20120;-75
2022/09/04 09:47:20;;;;;;;7.82;7.15;;;;;;;23.09;55.32;100430.56;5046579;28;20128;-75
2022/09/04 09:50:19;;;;;;;7.67;7.17;;;;;;;22.96;55.44;100437.56;5031481;28;20128;-76
2022/09/04 09:52:54;;;;;;;10.82;7.47;;;;;;;23.06;55.55;100459.78;5045248;28;20136;-75
2022/09/04 09:55:50;;;;;;;7.38;6.95;;;;;;;23.06;55.31;100451.25;5040005;28;20128;-73
2022/09/04 09:58:29;;;;;;;10.32;9.45;;;;;;;23.00;55.51;100462.06;5047293;28;20486;-76
2022/09/04 10:00:58;;;;;;;7.63;7.00;;;;;;;22.92;55.86;100461.06;5047443;28;20589;-75
2022/09/04 10:03:37;;;;;;;8.00;7.30;;;;;;;22.99;55.65;100462.44;5053913;28;20053;-76
2022/09/04 10:06:15;;;;;;;6.53;5.90;;;;;;;22.74;56.45;100458.91;5037765;28;20060;-76
2022/09/04 10:09:14;;;;;;;8.57;6.90;;;;;;;22.53;57.00;100445.75;5042218;28;20087;-76
2022/09/04 10:11:53;;;;;;;10.80;6.88;;;;;;;22.68;57.31;100453.47;5048204;28;20080;-75
2022/09/04 10:14:29;;;;;;;6.57;5.93;;;;;;;22.93;56.81;100461.88;5048323;28;20455;-75
2022/09/04 10:17:35;;;;;;;7.43;6.63;;;;;;;23.15;56.56;100458.41;5051567;28;20381;-74
2022/09/04 10:20:26;;;;;;;6.80;6.30;;;;;;;23.33;56.22;100466.56;5052592;28;20077;-73
2022/09/04 10:22:59;;;;;;;8.40;7.70;;;;;;;23.45;55.73;100449.34;5051744;28;20131;-75
2022/09/04 10:25:58;;;;;;;6.28;5.88;;;;;;;23.48;56.11;100459.19;5031945;28;20144;-81
2022/09/04 10:28:43;;;;;;;9.63;8.15;;;;;;;23.45;55.99;100454.22;5023254;28;20092;-78
2022/09/04 10:31:26;;;;;;;7.82;6.00;;;;;;;23.59;55.47;100460.25;5042951;28;20179;-77
2022/09/04 10:34:22;;;;;;;8.35;5.68;;;;;;;23.74;55.49;100448.03;5047272;28;20127;-78
2022/09/04 10:37:23;;;;;;;9.75;9.23;;;;;;;24.44;54.35;100460.53;5028572;28;20458;-79
2022/09/04 10:42:59;;;;;;;9.20;8.68;;;;;;;25.75;52.49;100439.19;5050544;28;20507;-79
2022/09/04 10:45:33;;;;;;;9.45;8.23;;;;;;;26.38;51.70;100454.72;5047126;28;20110;-79
2022/09/04 10:48:18;;;;;;;10.98;8.00;;;;;;;26.79;50.71;100445.41;5041995;28;20053;-77
2022/09/04 10:51:15;;;;;;;8.38;7.40;;;;;;;27.29;50.15;100451.63;5042486;28;20222;-74
2022/09/04 10:54:05;;;;;;;7.47;6.70;;;;;;;27.25;49.48;100451.59;5049228;28;20049;-78
2022/09/04 10:56:54;;;;;;;10.32;9.73;;;;;;;26.99;49.55;100451.72;5050315;28;20059;-77
2022/09/04 10:59:38;;;;;;;6.78;6.10;;;;;;;26.84;49.04;100460.19;5028232;28;20076;-77
2022/09/04 11:02:17;;;;;;;7.40;6.78;;;;;;;26.46;49.30;100455.63;5049151;28;20205;-82
2022/09/04 11:05:06;;;;;;;8.35;7.78;;;;;;;26.70;49.42;100455.16;5045393;28;20049;-83
2022/09/04 11:07:55;;;;;;;7.80;7.30;;;;;;;26.86;48.50;100448.31;5030406;28;20085;-84
2022/09/04 11:10:46;;;;;;;10.75;7.95;;;;;;;26.82;48.34;100461.81;5048672;28;20080;-82
2022/09/04 11:13:22;;;;;;;11.90;11.10;;;;;;;26.67;48.56;100460.84;5048109;28;20519;-79
2022/09/04 11:15:58;;;;;;;6.93;6.40;;;;;;;26.35;48.87;100449.78;5045334;28;20053;-81
2022/09/04 11:18:29;;;;;;;8.32;7.53;;;;;;;26.56;48.44;100457.81;5047589;28;20164;-82
2022/09/04 11:21:29;;;;;;;10.43;8.63;;;;;;;26.80;48.56;100450.72;5047110;28;20511;-77
2022/09/04 11:24:42;;;;;;;7.07;6.57;;;;;;;27.05;47.96;100442.38;5046546;28;20829;-82
2022/09/04 11:27:50;;;;;;;9.48;8.77;;;;;;;27.02;47.75;100445.22;5026402;28;20143;-80
2022/09/04 11:30:22;;;;;;;9.90;8.95;;;;;;;26.41;48.26;100421.63;5042736;28;20498;-80
2022/09/04 11:33:08;;;;;;;8.02;7.00;;;;;;;26.80;48.73;100458.50;5030412;28;20076;-80
2022/09/04 11:35:47;;;;;;;7.18;6.68;;;;;;;27.00;48.22;100442.72;5049718;28;20084;-78
2022/09/04 11:38:38;;;;;;;7.88;7.30;;;;;;;26.74;48.50;100425.72;5035935;28;20084;-81
2022/09/04 11:41:27;;;;;;;7.18;6.75;;;;;;;26.86;48.30;100434.00;5047984;28;20108;-81
2022/09/04 11:44:14;;;;;;;7.20;6.47;;;;;;;27.06;47.88;100429.69;5050532;28;20069;-82
2022/09/04 11:47:11;;;;;;;9.23;6.03;;;;;;;27.15;47.43;100453.16;5029140;28;20384;-79
2022/09/04 11:50:04;;;;;;;10.43;9.52;;;;;;;27.31;47.56;100449.97;5044631;28;20080;-88
2022/09/04 11:52:46;;;;;;;8.60;8.05;;;;;;;27.57;46.84;100453.88;5047637;28;20072;-82
2022/09/04 11:55:36;;;;;;;9.50;7.82;;;;;;;27.83;46.32;100461.47;5047587;28;20136;-82
2022/09/04 11:58:29;;;;;;;8.45;6.05;;;;;;;27.58;46.34;100452.66;5040097;28;20162;-85
2022/09/04 12:01:07;;;;;;;6.38;5.97;;;;;;;27.04;47.00;100466.50;5045438;28;20057;-84
2022/09/04 12:04:00;;;;;;;8.82;6.47;;;;;;;26.63;47.58;100465.69;5045848;28;20057;-84
2022/09/04 12:06:39;;;;;;;9.02;7.45;;;;;;;26.51;47.98;100472.50;5046105;28;20061;-74
2022/09/04 12:09:31;;;;;;;8.40;7.50;;;;;;;26.56;48.02;100475.00;5046710;28;20128;-74
2022/09/04 12:12:31;;;;;;;7.55;5.80;;;;;;;27.96;46.34;100467.66;5047223;28;20128;-74
2022/09/04 12:15:23;;;;;;;6.30;5.90;;;;;;;28.73;44.39;100459.81;5045928;28;20140;-74
2022/09/04 12:18:14;;;;;;;9.25;8.48;;;;;;;28.04;45.45;100475.94;5046254;28;20332;-74
2022/09/04 12:20:54;;;;;;;6.40;5.82;;;;;;;27.95;45.95;100469.72;5046855;28;20049;-73
2022/09/04 12:23:47;;;;;;;9.95;7.32;;;;;;;28.00;46.19;100469.34;5045772;28;20083;-75
2022/09/04 12:26:48;;;;;;;7.93;7.32;;;;;;;28.04;45.98;100470.19;5043848;28;20115;-73
2022/09/04 12:29:32;;;;;;;6.20;5.53;;;;;;;28.34;45.57;100466.22;5036258;28;20056;-75
2022/09/04 12:32:02;;;;;;;8.20;7.25;;;;;;;27.50;46.17;100479.66;5043901;28;20567;-74
2022/09/04 12:34:53;;;;;;;7.43;5.88;;;;;;;26.42;47.90;100469.09;5049776;28;20068;-74
2022/09/04 12:37:51;;;;;;;9.50;6.40;;;;;;;26.00;48.81;100476.75;5045736;28;20076;-74
2022/09/04 12:40:35;;;;;;;5.45;5.13;;;;;;;25.66;49.23;100469.25;5048792;28;20480;-73
2022/09/04 12:43:41;;;;;;;6.45;5.88;;;;;;;25.38;49.55;100475.38;5036850;28;20048;-81
2022/09/04 12:46:17;;;;;;;9.38;8.43;;;;;;;25.16;50.39;100477.88;5049769;28;20136;-74
2022/09/04 12:49:06;;;;;;;8.05;7.20;;;;;;;25.09;50.48;100474.81;5053825;28;20214;-74
2022/09/04 12:52:17;;;;;;;10.30;8.15;;;;;;;25.06;50.39;100481.31;5053192;28;20045;-75
2022/09/04 12:55:15;;;;;;;7.50;6.80;;;;;;;25.02;51.57;100466.94;5038570;28;20048;-76
2022/09/04 12:58:11;;;;;;;7.50;6.68;;;;;;;25.63;51.02;100485.16;5049707;28;20139;-73
2022/09/04 13:01:17;;;;;;;8.98;8.20;;;;;;;26.01;50.21;100491.88;4993492;28;20082;-74